createdAt,value
2023-12-19T00:01:20.768Z,95.39
2023-12-19T00:03:47.472Z,94.79
2023-12-19T00:06:14.104Z,94.61
2023-12-19T00:08:40.445Z,94.51
2023-12-19T00:11:07.293Z,94.30
2023-12-19T00:13:33.760Z,95.11
2023-12-19T00:16:00.324Z,95.08
2023-12-19T00:18:26.923Z,95.31
2023-12-19T00:20:53.373Z,95.14
2023-12-19T00:23:19.859Z,94.98
2023-12-19T00:25:47.227Z,94.93
2023-12-19T00:28:13.543Z,94.60
2023-12-19T00:30:40.174Z,94.52
2023-12-19T00:33:06.797Z,95.30
2023-12-19T00:35:33.354Z,94.89
2023-12-19T00:37:59.679Z,94.05
2023-12-19T00:40:26.046Z,93.77
2023-12-19T00:42:52.441Z,94.50
2023-12-19T00:45:18.857Z,93.66
2023-12-19T00:47:45.545Z,93.61
2023-12-19T00:50:11.926Z,93.26
2023-12-19T00:52:38.302Z,92.97
2023-12-19T00:55:05.170Z,92.39
2023-12-19T00:57:32.640Z,92.50
2023-12-19T00:59:59.011Z,92.08
2023-12-19T01:02:25.382Z,91.63
2023-12-19T01:04:51.852Z,92.05
2023-12-19T01:07:18.266Z,92.03
2023-12-19T01:09:44.705Z,91.80
2023-12-19T01:12:11.088Z,91.59
2023-12-19T01:14:37.421Z,91.33
2023-12-19T01:17:03.884Z,91.30
2023-12-19T01:19:30.473Z,91.90
2023-12-19T01:21:56.890Z,92.09
2023-12-19T01:24:23.320Z,91.79
2023-12-19T01:26:49.735Z,92.45
2023-12-19T01:29:16.748Z,92.67
2023-12-19T01:31:43.340Z,93.20
2023-12-19T01:34:10.542Z,93.85
2023-12-19T01:36:39.581Z,93.74
2023-12-19T01:39:06.000Z,93.74
2023-12-19T01:41:32.397Z,93.71
2023-12-19T01:44:02.302Z,93.95
2023-12-19T01:46:29.133Z,93.97
2023-12-19T01:48:55.826Z,93.34
2023-12-19T01:51:22.367Z,92.79
2023-12-19T01:53:49.549Z,92.84
2023-12-19T01:56:18.420Z,92.85
2023-12-19T01:58:45.746Z,92.61
2023-12-19T02:01:13.567Z,92.82
2023-12-19T02:03:42.449Z,92.22
2023-12-19T02:06:11.919Z,91.95
2023-12-19T02:08:38.257Z,91.06
2023-12-19T02:11:05.121Z,91.39
2023-12-19T02:13:31.653Z,91.39
2023-12-19T02:15:58.313Z,90.82
2023-12-19T02:18:24.863Z,90.69
2023-12-19T02:20:51.286Z,91.02
2023-12-19T02:23:17.772Z,91.23
2023-12-19T02:25:44.131Z,90.96
2023-12-19T02:28:10.632Z,91.44
2023-12-19T02:30:37.563Z,90.84
2023-12-19T02:33:05.458Z,91.02
2023-12-19T02:35:32.176Z,90.89
2023-12-19T02:37:58.574Z,90.73
2023-12-19T02:40:25.058Z,90.08
2023-12-19T02:42:51.522Z,89.84
2023-12-19T02:45:17.969Z,90.30
2023-12-19T02:47:44.418Z,89.99
2023-12-19T02:50:11.182Z,89.91
2023-12-19T02:52:37.489Z,89.36
2023-12-19T02:55:04.225Z,89.14
2023-12-19T02:57:30.717Z,88.98
2023-12-19T02:59:57.114Z,88.67
2023-12-19T03:02:23.534Z,88.28
2023-12-19T03:04:49.941Z,87.85
2023-12-19T03:07:16.560Z,88.13
2023-12-19T03:09:43.001Z,88.79
2023-12-19T03:12:09.529Z,88.57
2023-12-19T03:14:37.636Z,88.71
2023-12-19T03:17:06.540Z,88.66
2023-12-19T03:19:33.039Z,88.84
2023-12-19T03:21:59.551Z,88.63
2023-12-19T03:24:26.037Z,89.33
2023-12-19T03:26:52.423Z,88.78
2023-12-19T03:29:18.767Z,88.86
2023-12-19T03:31:45.161Z,89.15
2023-12-19T03:34:11.987Z,88.82
2023-12-19T03:36:38.760Z,88.97
2023-12-19T03:39:05.208Z,88.97
2023-12-19T03:41:31.673Z,88.47
2023-12-19T03:43:58.052Z,89.02
2023-12-19T03:46:24.498Z,88.46
2023-12-19T03:48:50.977Z,88.76
2023-12-19T03:51:17.476Z,88.60
2023-12-19T03:53:43.841Z,88.54
2023-12-19T03:56:10.249Z,88.26
2023-12-19T03:58:39.297Z,87.76
2023-12-19T04:01:05.774Z,88.05
2023-12-19T04:03:32.281Z,88.41
2023-12-19T04:05:58.709Z,88.19
2023-12-19T04:08:25.077Z,88.57
2023-12-19T04:10:51.656Z,89.05
2023-12-19T04:13:18.112Z,88.44
2023-12-19T04:15:44.566Z,89.01
2023-12-19T04:18:11.883Z,88.59
2023-12-19T04:20:39.109Z,88.32
2023-12-19T04:23:05.486Z,88.69
2023-12-19T04:25:31.816Z,88.71
2023-12-19T04:27:58.211Z,88.11
2023-12-19T04:30:24.771Z,88.24
2023-12-19T04:32:51.318Z,87.84
2023-12-19T04:35:17.701Z,87.73
2023-12-19T04:37:44.097Z,87.66
2023-12-19T04:40:10.788Z,88.44
2023-12-19T04:42:37.175Z,87.99
2023-12-19T04:45:03.787Z,88.24
2023-12-19T04:47:30.216Z,87.92
2023-12-19T04:49:56.743Z,88.36
2023-12-19T04:52:23.350Z,88.82
2023-12-19T04:54:49.730Z,88.97
2023-12-19T04:57:16.115Z,89.46
2023-12-19T04:59:42.530Z,90.00
2023-12-19T05:02:08.946Z,89.66
2023-12-19T05:04:35.395Z,90.40
2023-12-19T05:07:01.921Z,90.15
2023-12-19T05:09:28.398Z,89.18
2023-12-19T05:11:54.770Z,90.07
2023-12-19T05:14:21.186Z,89.79
2023-12-19T05:16:47.600Z,89.51
2023-12-19T05:19:14.465Z,89.52
2023-12-19T05:21:41.124Z,90.08
2023-12-19T05:24:07.604Z,90.00
2023-12-19T05:26:33.995Z,89.74
2023-12-19T05:29:00.464Z,90.29
2023-12-19T05:31:26.970Z,90.37
2023-12-19T05:33:53.469Z,90.38
2023-12-19T05:36:20.133Z,89.93
2023-12-19T05:38:46.462Z,90.41
2023-12-19T05:41:12.796Z,89.82
2023-12-19T05:43:39.200Z,89.82
2023-12-19T05:46:05.630Z,90.38
2023-12-19T05:48:32.106Z,89.90
2023-12-19T05:50:58.556Z,90.10
2023-12-19T05:53:25.056Z,89.66
2023-12-19T05:55:51.510Z,90.06
2023-12-19T05:58:18.217Z,89.93
2023-12-19T06:00:44.965Z,89.70
2023-12-19T06:03:11.632Z,89.50
2023-12-19T06:05:38.027Z,89.26
2023-12-19T06:08:04.756Z,89.19
2023-12-19T06:10:31.151Z,89.06
2023-12-19T06:12:57.499Z,88.67
2023-12-19T06:15:24.310Z,88.92
2023-12-19T06:17:50.841Z,88.84
2023-12-19T06:20:17.368Z,88.40
2023-12-19T06:22:44.102Z,88.04
2023-12-19T06:25:12.391Z,88.05
2023-12-19T06:27:38.839Z,87.42
2023-12-19T06:30:14.773Z,87.72
2023-12-19T06:32:49.304Z,87.79
2023-12-19T06:35:15.815Z,87.71
2023-12-19T06:37:42.380Z,87.52
2023-12-19T06:40:09.330Z,86.91
2023-12-19T06:42:35.766Z,87.20
2023-12-19T06:45:02.165Z,87.03
2023-12-19T06:47:29.393Z,86.25
2023-12-19T06:49:55.975Z,86.91
2023-12-19T06:52:22.633Z,87.84
2023-12-19T06:54:49.116Z,88.21
2023-12-19T06:57:15.764Z,88.02
2023-12-19T06:59:42.113Z,87.36
2023-12-19T07:02:08.788Z,87.09
2023-12-19T07:04:35.313Z,86.26
2023-12-19T07:07:01.816Z,86.98
2023-12-19T07:09:28.263Z,86.38
2023-12-19T07:11:54.640Z,86.63
2023-12-19T07:14:20.968Z,86.48
2023-12-19T07:16:47.688Z,85.30
2023-12-19T07:19:17.338Z,84.98
2023-12-19T07:21:43.787Z,83.96
2023-12-19T07:24:10.671Z,85.12
2023-12-19T07:26:37.018Z,85.38
2023-12-19T07:29:03.668Z,84.92
2023-12-19T07:31:31.571Z,84.75
2023-12-19T07:34:01.855Z,85.01
2023-12-19T07:36:29.300Z,84.20
2023-12-19T07:38:55.753Z,83.47
2023-12-19T07:41:23.640Z,84.43
2023-12-19T07:43:50.333Z,84.45
2023-12-19T07:46:16.730Z,84.50
2023-12-19T07:48:43.171Z,85.12
2023-12-19T07:51:15.320Z,84.20
2023-12-19T07:53:41.658Z,84.08
2023-12-19T07:56:08.232Z,84.06
2023-12-19T07:58:34.587Z,83.66
2023-12-19T08:01:01.582Z,82.71
2023-12-19T08:03:31.922Z,83.27
2023-12-19T08:05:58.380Z,82.86
2023-12-19T08:08:24.771Z,82.17
2023-12-19T08:10:51.806Z,82.87
2023-12-19T08:13:18.888Z,82.80
2023-12-19T08:15:46.382Z,82.95
2023-12-19T08:18:12.874Z,82.69
2023-12-19T08:20:39.423Z,81.12
2023-12-19T08:23:05.864Z,81.63
2023-12-19T08:25:32.661Z,81.61
2023-12-19T08:27:59.130Z,81.97
2023-12-19T08:30:26.237Z,81.04
2023-12-19T08:32:52.670Z,81.25
2023-12-19T08:35:19.052Z,81.54
2023-12-19T08:37:45.683Z,81.04
2023-12-19T08:40:12.409Z,80.13
2023-12-19T08:42:38.936Z,80.69
2023-12-19T08:45:05.726Z,80.96
2023-12-19T08:47:32.072Z,81.46
2023-12-19T08:49:58.734Z,80.69
2023-12-19T08:52:25.441Z,81.03
2023-12-19T08:54:51.936Z,81.32
2023-12-19T08:57:18.364Z,80.93
2023-12-19T08:59:44.773Z,81.38
2023-12-19T09:02:11.122Z,81.67
2023-12-19T09:04:37.678Z,81.29
2023-12-19T09:07:04.327Z,81.57
2023-12-19T09:09:30.716Z,81.39
2023-12-19T09:11:57.105Z,81.15
2023-12-19T09:14:23.531Z,81.21
2023-12-19T09:16:49.900Z,81.48
2023-12-19T09:19:16.684Z,80.48
2023-12-19T09:21:43.176Z,80.32
2023-12-19T09:24:09.592Z,81.04
2023-12-19T09:26:39.345Z,80.23
2023-12-19T09:29:08.665Z,79.98
2023-12-19T09:31:35.307Z,78.27
2023-12-19T09:34:02.003Z,79.86
2023-12-19T09:36:28.449Z,79.57
2023-12-19T09:38:54.799Z,78.65
2023-12-19T09:41:21.236Z,79.21
2023-12-19T09:43:47.660Z,79.37
2023-12-19T09:46:14.060Z,78.44
2023-12-19T09:48:42.650Z,78.20
2023-12-19T09:51:19.846Z,78.77
2023-12-19T09:53:49.143Z,77.45
2023-12-19T09:56:16.924Z,76.75
2023-12-19T09:58:45.616Z,77.17
2023-12-19T10:01:12.299Z,74.64
2023-12-19T10:03:38.819Z,75.58
2023-12-19T10:06:05.614Z,75.38
2023-12-19T10:08:32.290Z,75.23
2023-12-19T10:10:58.623Z,75.05
2023-12-19T10:13:33.174Z,74.48
2023-12-19T10:16:29.458Z,73.16
2023-12-19T10:18:56.755Z,76.00
2023-12-19T10:21:23.879Z,75.55
2023-12-19T10:23:50.218Z,73.87
2023-12-19T10:26:16.596Z,74.60
2023-12-19T10:28:42.927Z,75.29
2023-12-19T10:31:11.484Z,74.63
2023-12-19T10:33:43.895Z,72.35
2023-12-19T10:36:28.347Z,72.36
2023-12-19T10:38:56.370Z,72.46
2023-12-19T10:41:25.478Z,72.98
2023-12-19T10:43:53.555Z,72.24
2023-12-19T10:46:20.736Z,70.38
2023-12-19T10:48:47.251Z,72.00
2023-12-19T10:51:17.179Z,71.37
2023-12-19T10:53:47.988Z,70.45
2023-12-19T10:56:17.377Z,68.46
2023-12-19T10:58:49.675Z,69.86
2023-12-19T11:01:20.068Z,69.66
2023-12-19T11:03:56.837Z,69.35
2023-12-19T11:06:26.605Z,68.99
2023-12-19T11:08:55.745Z,69.08
2023-12-19T11:11:31.888Z,69.64
2023-12-19T11:14:00.909Z,69.91
2023-12-19T11:16:33.936Z,68.11
2023-12-19T11:19:16.884Z,68.79
2023-12-19T11:21:58.303Z,67.52
2023-12-19T11:24:29.979Z,69.07
2023-12-19T11:27:17.775Z,67.57
2023-12-19T11:29:45.019Z,67.47
2023-12-19T11:32:34.796Z,69.50
2023-12-19T11:35:07.226Z,69.71
2023-12-19T11:37:35.155Z,69.23
2023-12-19T11:40:01.541Z,70.58
2023-12-19T11:42:40.715Z,70.91
2023-12-19T11:45:19.572Z,69.96
2023-12-19T11:47:47.577Z,70.30
2023-12-19T11:50:45.943Z,69.82
2023-12-19T11:53:12.321Z,70.99
2023-12-19T11:55:38.692Z,70.48
2023-12-19T11:58:12.789Z,69.01
2023-12-19T12:00:42.504Z,69.48
2023-12-19T12:03:12.979Z,71.02
2023-12-19T12:05:40.303Z,70.52
2023-12-19T12:08:07.307Z,69.98
2023-12-19T12:10:33.691Z,67.43
2023-12-19T12:13:03.490Z,67.45
2023-12-19T12:15:29.943Z,66.25
2023-12-19T12:18:07.955Z,62.85
2023-12-19T12:20:35.090Z,61.67
2023-12-19T12:23:02.590Z,60.44
2023-12-19T12:25:29.872Z,61.77
2023-12-19T12:28:09.408Z,62.40
2023-12-19T12:30:37.122Z,63.21
2023-12-19T12:33:05.408Z,63.95
2023-12-19T12:35:35.170Z,62.98
2023-12-19T12:38:09.167Z,62.70
2023-12-19T12:40:35.533Z,63.52
2023-12-19T12:43:29.040Z,62.16
2023-12-19T12:46:06.088Z,64.24
2023-12-19T12:48:32.593Z,64.94
2023-12-19T12:50:59.999Z,63.95
2023-12-19T12:53:26.502Z,63.15
2023-12-19T12:56:14.671Z,59.21
2023-12-19T12:58:41.612Z,61.55
2023-12-19T13:01:09.202Z,59.15
2023-12-19T13:03:35.898Z,59.69
2023-12-19T13:06:03.090Z,57.60
2023-12-19T13:08:30.271Z,60.66
2023-12-19T13:11:00.741Z,56.80
2023-12-19T13:13:27.768Z,56.63
2023-12-19T13:15:54.514Z,59.49
2023-12-19T13:18:22.707Z,60.21
2023-12-19T13:20:49.730Z,59.69
2023-12-19T13:23:16.234Z,54.79
2023-12-19T13:25:42.658Z,57.08
2023-12-19T13:28:09.511Z,57.48
2023-12-19T13:30:38.716Z,56.53
2023-12-19T13:33:06.976Z,56.43
2023-12-19T13:35:35.925Z,53.56
2023-12-19T13:38:02.884Z,57.26
2023-12-19T13:40:29.466Z,53.25
2023-12-19T13:42:56.902Z,55.44
2023-12-19T13:45:30.484Z,54.05
2023-12-19T13:47:57.633Z,55.70
2023-12-19T13:50:24.096Z,56.56
2023-12-19T13:52:50.510Z,57.21
2023-12-19T13:55:17.512Z,56.67
2023-12-19T13:57:44.527Z,53.89
2023-12-19T14:00:16.747Z,56.96
2023-12-19T14:02:46.078Z,56.92
2023-12-19T14:05:12.763Z,52.84
2023-12-19T14:07:40.224Z,56.06
2023-12-19T14:10:07.956Z,54.98
2023-12-19T14:12:38.289Z,54.41
2023-12-19T14:15:05.300Z,56.07
2023-12-19T14:17:31.953Z,56.07
2023-12-19T14:19:58.360Z,56.86
2023-12-19T14:22:24.792Z,56.39
2023-12-19T14:24:51.243Z,56.64
2023-12-19T14:27:17.638Z,56.79
2023-12-19T14:29:43.984Z,57.11
2023-12-19T14:32:10.336Z,56.97
2023-12-19T14:34:36.803Z,58.14
2023-12-19T14:37:03.301Z,55.49
2023-12-19T14:39:29.810Z,58.47
2023-12-19T14:41:56.294Z,58.54
2023-12-19T14:44:22.625Z,58.74
2023-12-19T14:46:49.002Z,58.76
2023-12-19T14:49:15.920Z,58.33
2023-12-19T14:51:42.582Z,59.05
2023-12-19T14:54:08.955Z,58.25
2023-12-19T14:56:35.297Z,58.31
2023-12-19T14:59:01.684Z,58.83
2023-12-19T15:01:28.114Z,58.20
2023-12-19T15:03:54.527Z,56.11
2023-12-19T15:06:21.730Z,56.76
2023-12-19T15:08:48.312Z,57.70
2023-12-19T15:11:14.912Z,58.69
2023-12-19T15:13:41.676Z,58.65
2023-12-19T15:16:08.095Z,58.70
2023-12-19T15:18:39.291Z,59.24
2023-12-19T15:21:07.158Z,58.36
2023-12-19T15:23:34.416Z,59.39
2023-12-19T15:26:00.958Z,58.73
2023-12-19T15:28:27.367Z,59.00
2023-12-19T15:30:53.783Z,58.50
2023-12-19T15:33:20.246Z,58.77
2023-12-19T15:35:46.701Z,59.37
2023-12-19T15:38:13.069Z,59.80
2023-12-19T15:40:42.213Z,59.80
2023-12-19T15:43:08.721Z,60.17
2023-12-19T15:45:35.167Z,59.87
2023-12-19T15:48:01.657Z,59.25
2023-12-19T15:50:28.012Z,58.33
2023-12-19T15:52:54.344Z,59.30
2023-12-19T15:55:20.740Z,59.61
2023-12-19T15:57:47.137Z,59.52
2023-12-19T16:00:14.119Z,59.81
2023-12-19T16:02:46.048Z,59.94
2023-12-19T16:05:15.386Z,59.56
2023-12-19T16:07:41.767Z,58.42
2023-12-19T16:10:08.491Z,59.96
2023-12-19T16:12:35.133Z,59.24
2023-12-19T16:15:01.538Z,58.71
2023-12-19T16:17:27.927Z,59.63
2023-12-19T16:19:54.375Z,60.20
2023-12-19T16:22:21.690Z,59.80
2023-12-19T16:24:48.117Z,59.02
2023-12-19T16:27:14.494Z,58.00
2023-12-19T16:29:40.841Z,59.13
2023-12-19T16:32:07.358Z,58.46
2023-12-19T16:34:34.129Z,58.38
2023-12-19T16:37:00.703Z,59.25
2023-12-19T16:39:27.124Z,59.02
2023-12-19T16:41:53.459Z,59.03
2023-12-19T16:44:19.782Z,59.93
2023-12-19T16:46:47.192Z,58.39
2023-12-19T16:49:13.821Z,58.38
2023-12-19T16:51:40.636Z,59.30
2023-12-19T16:54:07.196Z,58.82
2023-12-19T16:56:34.800Z,58.43
2023-12-19T16:59:02.096Z,59.29
2023-12-19T17:01:28.493Z,59.83
2023-12-19T17:03:55.474Z,59.51
2023-12-19T17:06:21.887Z,60.06
2023-12-19T17:08:48.213Z,59.78
2023-12-19T17:11:14.623Z,59.98
2023-12-19T17:13:40.951Z,60.46
2023-12-19T17:16:07.409Z,59.41
2023-12-19T17:18:34.056Z,60.41
2023-12-19T17:21:00.672Z,60.46
2023-12-19T17:23:30.864Z,60.24
2023-12-19T17:26:03.144Z,60.67
2023-12-19T17:28:29.585Z,61.99
2023-12-19T17:30:55.984Z,62.10
2023-12-19T17:33:22.350Z,62.08
2023-12-19T17:35:48.750Z,62.63
2023-12-19T17:38:15.109Z,62.59
2023-12-19T17:40:41.494Z,63.17
2023-12-19T17:43:07.938Z,63.09
2023-12-19T17:45:34.274Z,63.80
2023-12-19T17:48:00.699Z,63.45
2023-12-19T17:50:27.186Z,64.66
2023-12-19T17:52:53.620Z,64.37
2023-12-19T17:55:19.998Z,65.27
2023-12-19T17:57:46.408Z,65.89
2023-12-19T18:00:13.136Z,65.37
2023-12-19T18:02:39.773Z,66.58
2023-12-19T18:05:06.408Z,66.57
2023-12-19T18:07:32.937Z,67.55
2023-12-19T18:09:59.409Z,67.61
2023-12-19T18:12:25.793Z,67.70
2023-12-19T18:14:52.346Z,68.06
2023-12-19T18:17:18.748Z,68.37
2023-12-19T18:19:45.366Z,69.60
2023-12-19T18:22:11.821Z,68.14
2023-12-19T18:24:38.290Z,68.72
2023-12-19T18:27:05.240Z,69.68
2023-12-19T18:29:32.051Z,68.80
2023-12-19T18:31:58.461Z,69.72
2023-12-19T18:34:25.009Z,69.13
2023-12-19T18:36:51.504Z,69.42
2023-12-19T18:39:18.156Z,68.31
2023-12-19T18:41:47.564Z,68.48
2023-12-19T18:44:13.900Z,68.87
2023-12-19T18:46:41.352Z,68.30
2023-12-19T18:49:09.456Z,68.78
2023-12-19T18:51:36.055Z,68.65
2023-12-19T18:54:02.498Z,68.27
2023-12-19T18:56:28.953Z,68.70
2023-12-19T18:58:55.292Z,68.62
2023-12-19T19:01:23.682Z,68.56
2023-12-19T19:03:50.321Z,68.51
2023-12-19T19:06:16.732Z,68.51
2023-12-19T19:08:43.354Z,68.56
2023-12-19T19:11:09.755Z,68.31
2023-12-19T19:13:36.318Z,68.06
2023-12-19T19:16:02.859Z,68.28
2023-12-19T19:18:31.064Z,68.09
2023-12-19T19:20:57.710Z,68.56
2023-12-19T19:23:24.111Z,69.04
2023-12-19T19:25:50.582Z,68.26
2023-12-19T19:28:17.129Z,68.68
2023-12-19T19:30:47.550Z,68.75
2023-12-19T19:33:14.425Z,68.04
2023-12-19T19:35:40.938Z,68.71
2023-12-19T19:38:07.569Z,68.24
2023-12-19T19:40:41.398Z,69.27
2023-12-19T19:43:11.235Z,69.00
2023-12-19T19:45:38.286Z,68.54
2023-12-19T19:48:05.364Z,68.96
2023-12-19T19:50:31.821Z,69.81
2023-12-19T19:52:59.321Z,69.96
2023-12-19T19:55:26.207Z,70.15
2023-12-19T19:57:52.983Z,70.18
2023-12-19T20:00:19.675Z,70.88
2023-12-19T20:02:46.198Z,69.77
2023-12-19T20:05:13.028Z,70.58
2023-12-19T20:07:39.639Z,70.83
2023-12-19T20:10:06.836Z,70.30
2023-12-19T20:12:33.592Z,70.62
2023-12-19T20:17:51.229Z,71.01
2023-12-19T20:20:17.736Z,70.30
2023-12-19T20:22:44.359Z,70.81
2023-12-19T20:25:12.129Z,71.08
2023-12-19T20:30:28.607Z,71.52
2023-12-19T20:32:55.036Z,72.05
2023-12-19T20:35:21.451Z,71.76
2023-12-19T20:37:51.434Z,72.52
2023-12-19T20:40:18.037Z,75.59
2023-12-19T20:45:34.839Z,77.97
2023-12-19T20:50:52.139Z,78.11
2023-12-19T20:53:18.584Z,80.22
2023-12-19T20:55:45.209Z,79.69
2023-12-19T20:58:11.674Z,79.23
2023-12-19T21:00:38.152Z,79.14
2023-12-19T21:03:04.633Z,80.28
2023-12-19T21:05:31.027Z,79.09
2023-12-19T21:07:57.447Z,78.63
2023-12-19T21:10:23.850Z,79.55
2023-12-19T21:12:50.522Z,79.47
2023-12-19T21:15:17.021Z,79.69
2023-12-19T21:17:43.550Z,80.02
2023-12-19T21:20:10.663Z,80.68
2023-12-19T21:22:37.005Z,80.67
2023-12-19T21:25:03.911Z,80.46
2023-12-19T21:27:30.458Z,79.98
2023-12-19T21:29:56.887Z,80.40
2023-12-19T21:32:23.218Z,81.10
2023-12-19T21:34:49.784Z,80.20
2023-12-19T21:37:16.360Z,80.25
2023-12-19T21:39:42.871Z,80.00
2023-12-19T21:42:09.330Z,79.82
2023-12-19T21:44:35.687Z,79.92
2023-12-19T21:47:03.200Z,80.35
2023-12-19T21:49:29.722Z,79.59
2023-12-19T21:51:56.158Z,79.77
2023-12-19T21:54:22.615Z,79.10
2023-12-19T21:56:49.063Z,79.11
2023-12-19T21:59:15.469Z,79.05
2023-12-19T22:01:45.258Z,79.19
2023-12-19T22:04:11.956Z,78.85
2023-12-19T22:06:38.530Z,78.80
2023-12-19T22:09:05.085Z,78.27
2023-12-19T22:11:36.638Z,78.31
2023-12-19T22:14:05.577Z,77.88
2023-12-19T22:16:32.903Z,77.51
2023-12-19T22:19:00.313Z,78.08
2023-12-19T22:21:26.950Z,77.71
2023-12-19T22:23:53.947Z,77.78
2023-12-19T22:26:21.014Z,77.79
2023-12-19T22:28:48.966Z,77.57
2023-12-19T22:31:16.276Z,77.20
2023-12-19T22:33:42.929Z,77.31
2023-12-19T22:36:09.385Z,77.28
2023-12-19T22:38:36.916Z,77.00
2023-12-19T22:41:03.444Z,77.47
2023-12-19T22:43:29.781Z,77.72
2023-12-19T22:45:56.313Z,77.71
2023-12-19T22:48:22.914Z,77.91
2023-12-19T22:50:50.335Z,77.85
2023-12-19T22:53:16.679Z,77.35
2023-12-19T22:55:43.001Z,77.55
2023-12-19T22:58:09.877Z,77.98
2023-12-19T23:00:36.501Z,78.77
2023-12-19T23:03:03.240Z,78.46
2023-12-19T23:05:29.568Z,78.24
2023-12-19T23:07:56.015Z,78.60
2023-12-19T23:10:22.613Z,79.35
2023-12-19T23:12:49.778Z,78.68
2023-12-19T23:15:16.188Z,80.26
2023-12-19T23:17:42.607Z,80.76
2023-12-19T23:20:09.850Z,81.11
2023-12-19T23:22:36.374Z,81.46
2023-12-19T23:25:02.777Z,81.69
2023-12-19T23:27:29.146Z,81.92
2023-12-19T23:29:55.528Z,82.17
2023-12-19T23:32:21.919Z,82.45
2023-12-19T23:34:48.318Z,82.18
2023-12-19T23:37:14.936Z,82.45
2023-12-19T23:39:41.429Z,82.91
2023-12-19T23:42:07.854Z,82.89
2023-12-19T23:44:34.194Z,82.89
2023-12-19T23:47:00.521Z,82.95
2023-12-19T23:49:26.981Z,83.44
2023-12-19T23:51:53.467Z,83.20
2023-12-19T23:54:19.867Z,82.96
2023-12-19T23:56:46.288Z,83.46
2023-12-19T23:59:12.719Z,83.91
